Seattle, Washington
Traffic Map
Current Weather Conditions
Seattle, Washington
Overcast
Overcast
61°
Feels Like: 61°
Wind Chill: 61° Ceiling: 2100
Heat Index: 61° Visibility: 10mi
Dew Point: 54° Wind: 0mph
Humidity: 78% Direction: ° ()
Pressure: 30.26in Gusts: 0mph
Raw Report DataKBFI 231253Z 00000KT 10SM OVC021 16/12 A3026 RMK AO2 SLP246 T01610122
Traffic Incident Summary
Active as of:
Severity:
Category:
InformationThere was an issue retrieving the traffic information for this location. Please try a different location or try again shortly.
Advertisements
Track Severe Weather on mobile